»·PEaware :: N4922Z KPDX-KSFO

N4922Z :: KPDX-KSFO

FLIGHT INFORMATION

Flight Status: Arrived
Operator: Privately registered:
United States
More flights under this callsign
Pilot: William N. (15320)
Aircraft: MITSUBISHI MU-2 MARQUISE
(MU2)
More flights by this aircraft type
Origin: KPDX Portland Intl
United States
Destination: KSFO San Francisco Intl
United States
More flights between these airports :: More routes between these airports
Route: +MINNE5 FAMUK Q3 GOWND MLBEC BDEGA2
File this flight plan on PilotEdge
Remarks:
Altitude:
(Current/Filed)
29,000ft
Speed:
(Current/Filed)
270kts
Departed: 07-Jul-18 08:03 PM
Arrived: 07-Jul-18 10:18 PM
Distance/Time
Traveled:
478nm/2:15
Distance/Time
To Go:
Arrived

Flight Plot

Page will automatically refresh every two minutes.

Flight plan parsing failed; only flown route is shown


Map Options




Map Legend


Flown Route
Filed Route
Departure Airport
Arrival Airport
Navaid (VOR, NDB)
Fix

Horizontal Profiles

Position Reports

Time Latitude Longitude Heading Altitude Ground
Speed
07-Jul-18 19:44 45.587538 -122.583308 209 33ft 0kts
07-Jul-18 19:45 45.587537 -122.583308 210 33ft 0kts
07-Jul-18 19:46 45.587537 -122.583308 210 33ft 0kts
07-Jul-18 19:47 45.587537 -122.583308 210 33ft 0kts
07-Jul-18 19:48 45.587537 -122.583308 210 33ft 0kts
07-Jul-18 19:49 45.587537 -122.583308 210 33ft 0kts
07-Jul-18 19:50 45.587537 -122.583308 210 33ft 0kts
07-Jul-18 19:51 45.587537 -122.583308 210 33ft 0kts
07-Jul-18 19:52 45.587537 -122.583308 210 33ft 0kts
07-Jul-18 19:53 45.587537 -122.583308 210 33ft 0kts
07-Jul-18 19:54 45.587537 -122.583308 210 33ft 0kts
07-Jul-18 19:55 45.587537 -122.583308 210 33ft 0kts
07-Jul-18 19:56 45.587537 -122.583308 210 33ft 0kts
07-Jul-18 19:57 45.587537 -122.583308 210 33ft 0kts
07-Jul-18 19:58 45.587798 -122.582858 27 33ft 7kts
07-Jul-18 19:59 45.586024 -122.576321 118 33ft 29kts
07-Jul-18 20:00 45.582730 -122.567404 66 33ft 10kts
07-Jul-18 20:01 45.582758 -122.567327 58 33ft 0kts
07-Jul-18 20:02 45.582758 -122.567327 58 33ft 0kts
07-Jul-18 20:03 45.583794 -122.567410 301 33ft 0kts
07-Jul-18 20:04 45.596891 -122.600309 299 595ft 166kts
07-Jul-18 20:05 45.615952 -122.664188 283 2739ft 182kts
07-Jul-18 20:06 45.639602 -122.726571 296 5146ft 181kts
07-Jul-18 20:07 45.664661 -122.788503 296 7617ft 180kts
07-Jul-18 20:08 45.665029 -122.854729 251 9993ft 177kts
07-Jul-18 20:09 45.645059 -122.915471 198 12363ft 180kts
07-Jul-18 20:10 45.595216 -122.924935 190 14689ft 185kts
07-Jul-18 20:11 45.543658 -122.931366 190 16934ft 189kts
07-Jul-18 20:12 45.491642 -122.937476 192 19186ft 189kts
07-Jul-18 20:13 45.439250 -122.943605 193 21299ft 192kts
07-Jul-18 20:14 45.385744 -122.949901 194 23137ft 205kts
07-Jul-18 20:15 45.320358 -122.957531 192 23143ft 255kts
07-Jul-18 20:16 45.247265 -122.965917 191 23138ft 270kts
07-Jul-18 20:17 45.173903 -122.979962 197 24275ft 254kts
07-Jul-18 20:18 45.109583 -122.994954 199 26420ft 219kts
07-Jul-18 20:19 45.052163 -123.008408 200 28223ft 203kts
07-Jul-18 20:20 44.996384 -123.021607 200 29141ft 219kts
07-Jul-18 20:21 44.931891 -123.036498 199 29132ft 242kts
07-Jul-18 20:22 44.865124 -123.051935 199 29141ft 245kts
07-Jul-18 20:23 44.797507 -123.067547 199 29139ft 247kts
07-Jul-18 20:24 44.730014 -123.083166 198 29136ft 247kts
07-Jul-18 20:25 44.662161 -123.098722 198 29138ft 248kts
07-Jul-18 20:26 44.594109 -123.114331 198 29155ft 248kts
07-Jul-18 20:27 44.526147 -123.129889 198 29154ft 248kts
07-Jul-18 20:28 44.456189 -123.134367 189 29154ft 256kts
07-Jul-18 20:29 44.384878 -123.131868 189 29153ft 256kts
07-Jul-18 20:30 44.313871 -123.129412 189 29134ft 257kts
07-Jul-18 20:31 44.242497 -123.126953 188 29133ft 256kts
07-Jul-18 20:32 44.171362 -123.124505 188 29133ft 257kts
07-Jul-18 20:33 44.101238 -123.122087 188 29132ft 257kts
07-Jul-18 20:34 44.030033 -123.119646 188 29131ft 257kts
07-Jul-18 20:35 43.959045 -123.117218 188 29131ft 256kts
07-Jul-18 20:36 43.887932 -123.114793 188 29138ft 256kts
07-Jul-18 20:37 43.816399 -123.112361 188 29139ft 258kts
07-Jul-18 20:38 43.744892 -123.109933 187 29138ft 258kts
07-Jul-18 20:39 43.672984 -123.107497 187 29138ft 259kts
07-Jul-18 20:40 43.601277 -123.105071 187 29119ft 259kts
07-Jul-18 20:41 43.529184 -123.102639 187 29118ft 259kts
07-Jul-18 20:42 43.457333 -123.100223 187 29117ft 259kts
07-Jul-18 20:43 43.385696 -123.097821 187 29117ft 258kts
07-Jul-18 20:44 43.314075 -123.095424 187 29116ft 258kts
07-Jul-18 20:45 43.242398 -123.093029 188 29116ft 258kts
07-Jul-18 20:46 43.170954 -123.090640 188 29114ft 256kts
07-Jul-18 20:47 43.100252 -123.088299 188 29113ft 255kts
07-Jul-18 20:48 43.029473 -123.085955 188 29113ft 254kts
07-Jul-18 20:49 42.959161 -123.083630 188 29112ft 254kts
07-Jul-18 20:50 42.889200 -123.081317 188 29211ft 251kts
07-Jul-18 20:51 42.819135 -123.079023 188 29213ft 253kts
07-Jul-18 20:52 42.748613 -123.076701 188 29212ft 255kts
07-Jul-18 20:53 42.678093 -123.074374 188 29211ft 253kts
07-Jul-18 20:54 42.608040 -123.072090 188 29210ft 252kts
07-Jul-18 20:55 42.538187 -123.069814 188 29196ft 252kts
07-Jul-18 20:56 42.467495 -123.067511 188 29081ft 254kts
07-Jul-18 20:57 42.396976 -123.065225 188 29080ft 254kts
07-Jul-18 20:58 42.326288 -123.062932 188 29080ft 255kts
07-Jul-18 20:59 42.256248 -123.060661 188 29095ft 254kts
07-Jul-18 21:00 42.185247 -123.058387 188 29097ft 256kts
07-Jul-18 21:01 42.114203 -123.056089 188 29096ft 257kts
07-Jul-18 21:02 42.042828 -123.053789 188 29095ft 256kts
07-Jul-18 21:03 41.971808 -123.051513 188 29094ft 255kts
07-Jul-18 21:04 41.901226 -123.049257 188 29102ft 254kts
07-Jul-18 21:05 41.830533 -123.047007 188 29113ft 256kts
07-Jul-18 21:06 41.759551 -123.044744 188 29112ft 256kts
07-Jul-18 21:07 41.688343 -123.042467 188 29111ft 255kts
07-Jul-18 21:08 41.617942 -123.040243 188 29110ft 253kts
07-Jul-18 21:09 41.548292 -123.038043 188 29109ft 253kts
07-Jul-18 21:10 41.478197 -123.035832 188 29109ft 252kts
07-Jul-18 21:11 41.408314 -123.033627 188 29144ft 251kts
07-Jul-18 21:12 41.338666 -123.031445 188 29144ft 251kts
07-Jul-18 21:13 41.268778 -123.029253 188 29143ft 251kts
07-Jul-18 21:14 41.198996 -123.027079 188 29078ft 252kts
07-Jul-18 21:15 41.128943 -123.024878 188 29077ft 251kts
07-Jul-18 21:16 41.059422 -123.022714 188 29076ft 250kts
07-Jul-18 21:17 40.990015 -123.020557 188 29075ft 250kts
07-Jul-18 21:18 40.920452 -123.018399 188 29075ft 250kts
07-Jul-18 21:19 40.851696 -123.016276 188 29087ft 251kts
07-Jul-18 21:20 40.781882 -123.014116 188 29085ft 252kts
07-Jul-18 21:21 40.712015 -123.011981 187 29085ft 252kts
07-Jul-18 21:22 40.641794 -123.009799 187 29084ft 253kts
07-Jul-18 21:23 40.571571 -123.007641 187 29083ft 253kts
07-Jul-18 21:24 40.501767 -123.005502 187 29091ft 252kts
07-Jul-18 21:25 40.431672 -123.003359 187 29090ft 252kts
07-Jul-18 21:25 40.373426 -123.001582 187 29089ft 252kts
07-Jul-18 21:26 40.303279 -122.999445 187 29089ft 252kts
07-Jul-18 21:27 40.233495 -122.997399 188 29086ft 251kts
07-Jul-18 21:28 40.163430 -122.995420 186 29087ft 253kts
07-Jul-18 21:29 40.093010 -122.993093 187 28945ft 257kts
07-Jul-18 21:30 40.021978 -122.990918 187 28939ft 255kts
07-Jul-18 21:31 39.951434 -122.988793 187 28938ft 254kts
07-Jul-18 21:32 39.881110 -122.986680 187 28949ft 253kts
07-Jul-18 21:33 39.810550 -122.984565 187 28949ft 255kts
07-Jul-18 21:34 39.739632 -122.982460 186 28956ft 255kts
07-Jul-18 21:35 39.669158 -122.980342 186 29048ft 255kts
07-Jul-18 21:36 39.597867 -122.978207 186 29047ft 257kts
07-Jul-18 21:37 39.526550 -122.976081 186 29046ft 258kts
07-Jul-18 21:38 39.455059 -122.973955 186 29045ft 258kts
07-Jul-18 21:39 39.383552 -122.971834 186 29044ft 258kts
07-Jul-18 21:40 39.311843 -122.969712 186 29043ft 258kts
07-Jul-18 21:41 39.240362 -122.967619 185 29042ft 257kts
07-Jul-18 21:43 39.168716 -122.965502 185 29042ft 259kts
07-Jul-18 21:44 39.096567 -122.963381 185 29041ft 260kts
07-Jul-18 21:45 39.024492 -122.961946 185 29041ft 260kts
07-Jul-18 21:46 38.952332 -122.960529 185 29040ft 260kts
07-Jul-18 21:47 38.880283 -122.959126 185 29049ft 260kts
07-Jul-18 21:48 38.807180 -122.938993 174 28423ft 275kts
07-Jul-18 21:49 38.730980 -122.916453 173 27130ft 290kts
07-Jul-18 21:50 38.651268 -122.892853 173 25824ft 298kts
07-Jul-18 21:51 38.569610 -122.868757 173 24499ft 303kts
07-Jul-18 21:52 38.489155 -122.845037 173 23754ft 292kts
07-Jul-18 21:53 38.409163 -122.821562 173 22627ft 297kts
07-Jul-18 21:54 38.315779 -122.794105 173 21259ft 287kts
07-Jul-18 21:55 38.255008 -122.776364 173 20260ft 266kts
07-Jul-18 21:56 38.180588 -122.754793 172 18945ft 286kts
07-Jul-18 21:57 38.101128 -122.731622 171 17625ft 298kts
07-Jul-18 21:58 38.020226 -122.708102 171 16327ft 295kts
07-Jul-18 21:59 37.946698 -122.686853 172 15052ft 252kts
07-Jul-18 22:00 37.884691 -122.658195 146 13859ft 240kts
07-Jul-18 22:01 37.834424 -122.604313 146 12840ft 235kts
07-Jul-18 22:02 37.783989 -122.550885 146 11853ft 239kts
07-Jul-18 22:03 37.731726 -122.495642 144 11028ft 254kts
07-Jul-18 22:04 37.678696 -122.439135 145 11010ft 246kts
07-Jul-18 22:05 37.626773 -122.384014 145 11013ft 245kts
07-Jul-18 22:06 37.568603 -122.342497 158 11009ft 243kts
07-Jul-18 22:07 37.511862 -122.305953 158 11011ft 214kts
07-Jul-18 22:08 37.461344 -122.273348 159 11000ft 199kts
07-Jul-18 22:09 37.412818 -122.242100 150 9939ft 200kts
07-Jul-18 22:10 37.417681 -122.170462 73 8460ft 228kts
07-Jul-18 22:11 37.446483 -122.102885 18 6932ft 228kts
07-Jul-18 22:12 37.509528 -122.084483 335 4451ft 240kts
07-Jul-18 22:13 37.529212 -122.155976 279 2991ft 206kts
07-Jul-18 22:14 37.551629 -122.210005 297 2566ft 156kts
07-Jul-18 22:15 37.569727 -122.252907 298 1836ft 121kts
07-Jul-18 22:16 37.583960 -122.286603 296 1189ft 96kts
07-Jul-18 22:17 37.597158 -122.316714 293 693ft 99kts
07-Jul-18 22:18 37.609392 -122.347279 293 262ft 96kts
07-Jul-18 22:19 37.619098 -122.370400 297 8ft 25kts
07-Jul-18 22:20 37.622357 -122.378168 296 22ft 21kts
07-Jul-18 22:21 37.624741 -122.381299 17 21ft 10kts
07-Jul-18 22:22 37.626670 -122.383067 312 13ft 5kts
07-Jul-18 22:23 37.627624 -122.384239 297 12ft 0kts

Navigation Log

Ident Type
Flight plan parsing failed, navigation log unavailable